KCDC/CDC METAR and TAF weather

Enter ICAO airport designator
Station Type Date Time Source
KCDC METAR 2020/02/27 13:53 UTC NOAA

KCDC 271353Z AUTO 00000KT 10SM CLR M06/M08 A3038 RMK AO2 SLP303 T10611083


Station Type Date Time Source
KCDC Decoded METAR 2020/02/27 13:53 UTC NOAA

CEDAR CITY MUN AIRPORT, UT, United States (KCDC) 37-42N 113-06W 1714M
Feb 27, 2020 - 08:53 AM EST / 2020.02.27 1353 UTC
Wind: Calm:0
Visibility: 10 mile(s):0
Sky conditions: clear
Temperature: 21.0 F (-6.1 C)
Dew Point: 17.1 F (-8.3 C)
Relative Humidity: 84%
Pressure (altimeter): 30.38 in. Hg (1028 hPa)
ob: KCDC 271353Z AUTO 00000KT 10SM CLR M06/M08 A3038 RMK AO2 SLP303 T10611083
cycle: 14

Station Type Date Time Source
KCDC TAF 2020/02/27 12:22 UTC NOAA

TAF KCDC 271120Z 2712/2812 VRB04KT P6SM SKC

Example: see airport list